createdAt,value
2023-09-08T00:02:14.602Z,1.60
2023-09-08T00:04:42.865Z,1.60
2023-09-08T00:07:13.092Z,1.20
2023-09-08T00:09:41.347Z,1.60
2023-09-08T00:12:11.657Z,1.30
2023-09-08T00:14:40.294Z,1.60
2023-09-08T00:17:08.752Z,1.20
2023-09-08T00:19:37.354Z,1.20
2023-09-08T00:22:21.854Z,1.40
2023-09-08T00:24:50.058Z,1.40
2023-09-08T00:27:20.042Z,1.90
2023-09-08T00:29:48.200Z,1.50
2023-09-08T00:32:33.210Z,1.40
2023-09-08T00:35:02.040Z,1.60
2023-09-08T00:37:46.266Z,1.50
2023-09-08T00:40:14.939Z,1.20
2023-09-08T00:42:50.982Z,1.40
2023-09-08T00:45:19.262Z,1.40
2023-09-08T00:47:49.283Z,1.50
2023-09-08T00:50:17.479Z,1.60
2023-09-08T00:52:49.758Z,1.40
2023-09-08T00:55:20.345Z,1.30
2023-09-08T00:58:04.871Z,1.30
2023-09-08T01:00:33.922Z,1.20
2023-09-08T01:03:05.031Z,1.30
2023-09-08T01:05:33.730Z,1.50
2023-09-08T01:08:06.027Z,1.20
2023-09-08T01:10:34.274Z,1.30
2023-09-08T01:13:18.917Z,1.20
2023-09-08T01:15:47.020Z,1.40
2023-09-08T01:18:17.235Z,1.20
2023-09-08T01:20:54.733Z,1.30
2023-09-08T01:23:25.804Z,1.50
2023-09-08T01:26:20.466Z,1.50
2023-09-08T01:28:51.054Z,1.20
2023-09-08T01:31:22.145Z,1.40
2023-09-08T01:33:50.391Z,1.40
2023-09-08T01:36:34.671Z,1.50
2023-09-08T01:39:03.383Z,1.40
2023-09-08T01:41:35.878Z,1.60
2023-09-08T01:44:09.414Z,1.30
2023-09-08T01:46:40.648Z,1.90
2023-09-08T01:49:09.029Z,1.60
2023-09-08T01:51:42.029Z,1.60
2023-09-08T01:54:11.184Z,1.60
2023-09-08T01:56:56.228Z,1.90
2023-09-08T01:59:24.339Z,1.80
2023-09-08T02:02:08.542Z,1.80
2023-09-08T02:07:07.859Z,1.70
2023-09-08T02:09:36.811Z,2.10
2023-09-08T02:12:07.534Z,2.40
2023-09-08T02:14:35.701Z,2.20
2023-09-08T02:17:07.440Z,1.90
2023-09-08T02:19:35.645Z,2.20
2023-09-08T02:22:13.707Z,2.30
2023-09-08T02:24:41.891Z,2.00
2023-09-08T02:27:27.536Z,1.60
2023-09-08T02:29:55.762Z,2.10
2023-09-08T02:32:40.175Z,2.00
2023-09-08T02:35:09.180Z,1.70
2023-09-08T02:37:54.231Z,1.80
2023-09-08T02:40:23.055Z,2.00
2023-09-08T02:43:07.579Z,1.90
2023-09-08T02:45:36.725Z,2.30
2023-09-08T02:48:25.859Z,2.60
2023-09-08T02:50:55.347Z,1.80
2023-09-08T02:53:30.049Z,2.40
2023-09-08T02:55:58.902Z,2.80
2023-09-08T02:58:35.030Z,2.50
2023-09-08T03:01:13.824Z,2.10
2023-09-08T03:04:02.247Z,2.30
2023-09-08T03:06:38.585Z,2.30
2023-09-08T03:09:06.923Z,2.10
2023-09-08T03:11:55.114Z,2.20
2023-09-08T03:14:23.240Z,1.80
2023-09-08T03:16:53.791Z,2.30
2023-09-08T03:19:22.023Z,2.30
2023-09-08T03:22:10.102Z,2.70
2023-09-08T03:24:38.280Z,2.60
2023-09-08T03:27:26.307Z,2.30
2023-09-08T03:29:56.368Z,1.80
2023-09-08T03:32:40.986Z,2.00
2023-09-08T03:37:53.854Z,2.40
2023-09-08T03:40:22.169Z,1.80
2023-09-08T03:42:52.489Z,2.30
2023-09-08T03:45:21.149Z,2.10
2023-09-08T03:48:05.553Z,2.70
2023-09-08T03:50:33.907Z,2.50
2023-09-08T03:53:04.898Z,2.70
2023-09-08T03:55:33.853Z,3.20
2023-09-08T03:58:17.956Z,2.80
2023-09-08T04:00:46.110Z,2.90
2023-09-08T04:03:34.561Z,3.50
2023-09-08T04:06:03.158Z,3.00
2023-09-08T04:08:47.411Z,3.10
2023-09-08T04:11:15.942Z,2.40
2023-09-08T04:14:04.250Z,2.80
2023-09-08T04:16:32.423Z,2.80
2023-09-08T04:19:16.651Z,2.60
2023-09-08T04:22:01.053Z,2.50
2023-09-08T04:27:15.773Z,2.80
2023-09-08T04:29:44.434Z,2.80
2023-09-08T04:32:32.829Z,2.80
2023-09-08T04:35:00.989Z,2.90
2023-09-08T04:37:32.057Z,2.50
2023-09-08T04:40:00.253Z,3.50
2023-09-08T04:42:31.086Z,3.10
2023-09-08T04:44:59.753Z,2.60
2023-09-08T04:47:30.005Z,2.80
2023-09-08T04:49:58.456Z,2.90
2023-09-08T04:52:43.551Z,2.90
2023-09-08T04:55:12.288Z,3.30
2023-09-08T04:57:56.660Z,2.60
2023-09-08T05:00:26.142Z,2.60
2023-09-08T05:02:56.591Z,3.00
2023-09-08T05:05:25.012Z,2.60
2023-09-08T05:08:09.222Z,2.80
2023-09-08T05:10:38.065Z,2.40
2023-09-08T05:13:31.274Z,2.30
2023-09-08T05:16:12.773Z,3.10
2023-09-08T05:18:53.028Z,2.60
2023-09-08T05:21:21.614Z,2.60
2023-09-08T05:23:53.171Z,2.60
2023-09-08T05:26:21.485Z,2.50
2023-09-08T05:29:10.161Z,3.00
2023-09-08T05:31:38.409Z,2.40
2023-09-08T05:34:09.188Z,2.90
2023-09-08T05:36:39.486Z,2.70
2023-09-08T05:39:08.316Z,3.10
2023-09-08T05:41:37.284Z,2.50
2023-09-08T05:44:17.651Z,2.90
2023-09-08T05:46:47.297Z,2.50
2023-09-08T05:49:31.939Z,2.60
2023-09-08T05:52:00.234Z,2.40
2023-09-08T05:54:32.855Z,2.70
2023-09-08T05:57:01.469Z,3.00
2023-09-08T05:59:38.500Z,2.80
2023-09-08T06:02:07.315Z,2.90
2023-09-08T06:04:58.043Z,3.10
2023-09-08T06:07:53.766Z,3.90
2023-09-08T06:10:32.041Z,3.60
2023-09-08T06:13:02.945Z,3.00
2023-09-08T06:15:31.752Z,3.80
2023-09-08T06:18:20.665Z,3.80
2023-09-08T06:21:04.769Z,2.90
2023-09-08T06:24:13.078Z,3.10
2023-09-08T06:26:41.375Z,2.80
2023-09-08T06:29:10.794Z,3.00
2023-09-08T06:31:39.212Z,2.40
2023-09-08T06:34:07.987Z,2.40
2023-09-08T06:36:36.426Z,2.90
2023-09-08T06:39:05.606Z,3.20
2023-09-08T06:41:34.597Z,2.40
2023-09-08T06:44:03.566Z,2.80
2023-09-08T06:46:31.792Z,2.30
2023-09-08T06:49:08.329Z,1.90
2023-09-08T06:51:36.624Z,2.30
2023-09-08T06:54:07.539Z,2.70
2023-09-08T06:56:40.946Z,2.00
2023-09-08T06:59:18.557Z,2.20
2023-09-08T07:01:46.995Z,2.00
2023-09-08T07:04:17.756Z,1.60
2023-09-08T07:06:47.833Z,2.10
2023-09-08T07:09:16.725Z,1.80
2023-09-08T07:11:45.986Z,2.10
2023-09-08T07:14:14.294Z,1.50
2023-09-08T07:16:42.629Z,1.70
2023-09-08T07:19:11.233Z,1.90
2023-09-08T07:21:40.034Z,1.80
2023-09-08T07:24:08.792Z,2.00
2023-09-08T07:26:36.983Z,1.50
2023-09-08T07:29:05.186Z,1.50
2023-09-08T07:31:33.573Z,1.20
2023-09-08T07:34:02.148Z,1.40
2023-09-08T07:36:30.335Z,1.30
2023-09-08T07:38:58.770Z,1.50
2023-09-08T07:41:26.930Z,1.90
2023-09-08T07:43:56.412Z,1.40
2023-09-08T07:46:26.311Z,1.00
2023-09-08T07:48:54.778Z,0.90
2023-09-08T07:51:23.443Z,1.90
2023-09-08T07:53:51.789Z,1.80
2023-09-08T07:56:20.262Z,1.70
2023-09-08T07:58:48.806Z,1.20
2023-09-08T08:01:17.056Z,1.00
2023-09-08T08:03:45.353Z,1.00
2023-09-08T08:06:13.753Z,1.10
2023-09-08T08:08:41.973Z,0.70
2023-09-08T08:11:11.618Z,1.00
2023-09-08T08:13:39.799Z,0.70
2023-09-08T08:16:08.338Z,1.00
2023-09-08T08:18:37.052Z,0.90
2023-09-08T08:21:05.642Z,0.70
2023-09-08T08:23:35.327Z,0.70
2023-09-08T08:26:04.394Z,0.80
2023-09-08T08:28:33.307Z,1.00
2023-09-08T08:31:02.274Z,0.70
2023-09-08T08:33:31.361Z,1.70
2023-09-08T08:35:59.802Z,1.00
2023-09-08T08:38:27.996Z,1.10
2023-09-08T08:40:56.278Z,0.90
2023-09-08T08:43:25.173Z,1.40
2023-09-08T08:45:54.242Z,0.70
2023-09-08T08:48:23.260Z,0.90
2023-09-08T08:50:52.236Z,0.80
2023-09-08T08:53:22.204Z,1.00
2023-09-08T08:55:52.812Z,0.90
2023-09-08T08:58:26.208Z,0.90
2023-09-08T09:03:25.686Z,0.80
2023-09-08T09:05:54.468Z,0.80
2023-09-08T09:08:25.100Z,0.80
2023-09-08T09:10:53.877Z,1.30
2023-09-08T09:13:22.527Z,0.90
2023-09-08T09:15:51.858Z,0.70
2023-09-08T09:18:20.154Z,1.60
2023-09-08T09:20:54.977Z,1.10
2023-09-08T09:23:33.511Z,0.90
2023-09-08T09:26:05.304Z,0.80
2023-09-08T09:28:33.907Z,0.70
2023-09-08T09:31:02.410Z,0.60
2023-09-08T09:33:31.506Z,0.50
2023-09-08T09:36:00.727Z,0.70
2023-09-08T09:38:30.068Z,1.00
2023-09-08T09:40:59.510Z,0.60
2023-09-08T09:43:30.360Z,0.90
2023-09-08T09:45:58.645Z,0.90
2023-09-08T09:48:28.948Z,0.80
2023-09-08T09:50:57.632Z,0.70
2023-09-08T09:53:26.077Z,0.80
2023-09-08T09:55:55.079Z,0.90
2023-09-08T09:58:23.379Z,0.70
2023-09-08T10:00:52.684Z,0.70
2023-09-08T10:03:22.215Z,0.80
2023-09-08T10:05:50.894Z,0.50
2023-09-08T10:08:19.172Z,0.90
2023-09-08T10:10:49.288Z,0.90
2023-09-08T10:13:25.618Z,0.70
2023-09-08T10:15:56.136Z,0.80
2023-09-08T10:18:25.336Z,0.60
2023-09-08T10:20:54.747Z,0.90
2023-09-08T10:23:33.078Z,0.60
2023-09-08T10:26:05.538Z,0.60
2023-09-08T10:28:35.206Z,0.40
2023-09-08T10:31:04.583Z,0.60
2023-09-08T10:33:33.227Z,0.70
2023-09-08T10:36:04.397Z,1.00
2023-09-08T10:38:34.554Z,0.70
2023-09-08T10:41:33.731Z,0.80
2023-09-08T10:44:09.120Z,0.80
2023-09-08T10:46:38.347Z,0.60
2023-09-08T10:49:08.863Z,0.60
2023-09-08T10:51:37.356Z,0.70
2023-09-08T10:54:05.918Z,0.80
2023-09-08T10:56:56.186Z,0.70
2023-09-08T10:59:44.533Z,0.60
2023-09-08T11:02:31.579Z,0.50
2023-09-08T11:04:59.864Z,0.50
2023-09-08T11:07:27.997Z,0.50
2023-09-08T11:09:56.155Z,0.30
2023-09-08T11:12:28.131Z,0.40
2023-09-08T11:14:56.435Z,0.50
2023-09-08T11:17:31.315Z,0.60
2023-09-08T11:19:59.774Z,0.70
2023-09-08T11:22:28.436Z,0.70
2023-09-08T11:24:59.552Z,0.60
2023-09-08T11:27:28.221Z,0.60
2023-09-08T11:29:56.817Z,0.60
2023-09-08T11:32:34.963Z,0.60
2023-09-08T11:35:08.738Z,0.90
2023-09-08T11:37:41.287Z,0.50
2023-09-08T11:40:11.630Z,0.60
2023-09-08T11:42:45.351Z,0.70
2023-09-08T11:45:22.937Z,0.70
2023-09-08T11:47:51.617Z,0.60
2023-09-08T11:50:20.141Z,0.70
2023-09-08T11:52:53.150Z,0.60
2023-09-08T11:55:22.171Z,0.50
2023-09-08T11:57:56.141Z,0.70
2023-09-08T12:00:25.224Z,0.70
2023-09-08T12:02:53.398Z,1.00
2023-09-08T12:05:25.818Z,0.70
2023-09-08T12:07:55.959Z,0.50
2023-09-08T12:10:25.677Z,0.60
2023-09-08T12:12:55.956Z,0.70
2023-09-08T12:15:30.782Z,0.60
2023-09-08T12:17:59.371Z,0.60
2023-09-08T12:20:27.722Z,0.70
2023-09-08T12:22:55.949Z,0.60
2023-09-08T12:25:24.076Z,0.50
2023-09-08T12:27:53.222Z,0.70
2023-09-08T12:30:22.598Z,0.50
2023-09-08T12:32:52.111Z,0.50
2023-09-08T12:35:26.159Z,0.50
2023-09-08T12:37:55.750Z,0.70
2023-09-08T12:40:24.013Z,0.60
2023-09-08T12:42:56.858Z,0.50
2023-09-08T12:45:29.121Z,0.80
2023-09-08T12:47:59.570Z,0.70
2023-09-08T12:50:27.933Z,0.50
2023-09-08T12:52:55.981Z,0.70
2023-09-08T12:55:24.261Z,0.60
2023-09-08T12:57:55.962Z,0.50
2023-09-08T13:00:24.779Z,0.50
2023-09-08T13:02:53.212Z,0.60
2023-09-08T13:05:22.454Z,0.40
2023-09-08T13:07:50.888Z,0.50
2023-09-08T13:10:19.188Z,0.80
2023-09-08T13:12:47.822Z,0.60
2023-09-08T13:15:16.297Z,0.70
2023-09-08T13:17:44.926Z,0.40
2023-09-08T13:20:13.768Z,0.60
2023-09-08T13:22:42.036Z,0.50
2023-09-08T13:25:10.807Z,0.60
2023-09-08T13:27:38.957Z,0.70
2023-09-08T13:30:11.244Z,0.50
2023-09-08T13:32:39.812Z,0.70
2023-09-08T13:35:14.754Z,0.60
2023-09-08T13:37:43.829Z,0.70
2023-09-08T13:40:12.243Z,0.70
2023-09-08T13:42:40.523Z,0.70
2023-09-08T13:45:16.178Z,0.80
2023-09-08T13:47:45.227Z,0.60
2023-09-08T13:50:16.811Z,0.70
2023-09-08T13:52:47.666Z,0.60
2023-09-08T13:55:36.828Z,0.50
2023-09-08T13:58:09.581Z,1.00
2023-09-08T14:00:39.651Z,0.90
2023-09-08T14:03:13.965Z,0.60
2023-09-08T14:06:23.016Z,0.60
2023-09-08T14:14:09.582Z,0.60
2023-09-08T14:17:02.709Z,1.10
2023-09-08T14:19:32.849Z,0.80
2023-09-08T14:22:00.918Z,0.50
2023-09-08T14:24:37.396Z,0.60
2023-09-08T14:27:05.600Z,0.70
2023-09-08T14:29:34.975Z,0.90
2023-09-08T14:32:03.836Z,0.90
2023-09-08T14:34:31.957Z,0.70
2023-09-08T14:37:01.442Z,0.80
2023-09-08T14:39:32.270Z,0.60
2023-09-08T14:42:00.460Z,0.80
2023-09-08T14:44:30.805Z,0.70
2023-09-08T14:46:59.042Z,0.80
2023-09-08T14:49:27.265Z,0.90
2023-09-08T14:51:56.042Z,0.90
2023-09-08T14:54:24.219Z,1.00
2023-09-08T14:56:56.941Z,0.70
2023-09-08T14:59:25.204Z,0.70
2023-09-08T15:01:55.344Z,0.60
2023-09-08T15:04:23.454Z,0.90
2023-09-08T15:06:53.633Z,0.50
2023-09-08T15:09:21.723Z,0.70
2023-09-08T15:11:58.043Z,1.00
2023-09-08T15:14:26.161Z,1.00
2023-09-08T15:16:56.157Z,0.60
2023-09-08T15:19:24.365Z,0.70
2023-09-08T15:21:52.506Z,0.80
2023-09-08T15:24:20.714Z,0.50
2023-09-08T15:26:51.507Z,0.90
2023-09-08T15:29:21.549Z,0.70
2023-09-08T15:31:51.748Z,0.60
2023-09-08T15:34:20.673Z,0.50
2023-09-08T15:36:50.886Z,0.60
2023-09-08T15:39:19.117Z,0.70
2023-09-08T15:41:47.294Z,0.90
2023-09-08T15:44:16.071Z,0.80
2023-09-08T15:46:47.062Z,0.60
2023-09-08T15:49:15.289Z,0.70
2023-09-08T15:51:43.546Z,1.10
2023-09-08T15:54:13.642Z,0.80
2023-09-08T15:56:41.828Z,0.90
2023-09-08T15:59:09.925Z,0.90
2023-09-08T16:01:40.125Z,0.80
2023-09-08T16:04:11.372Z,0.80
2023-09-08T16:06:41.987Z,0.80
2023-09-08T16:09:10.261Z,1.00
2023-09-08T16:11:40.299Z,1.00
2023-09-08T16:14:08.537Z,1.20
2023-09-08T16:16:40.839Z,1.50
2023-09-08T16:19:09.728Z,1.80
2023-09-08T16:21:39.888Z,1.60
2023-09-08T16:24:08.286Z,1.60
2023-09-08T16:26:36.605Z,1.80
2023-09-08T16:29:04.776Z,1.90
2023-09-08T16:31:34.953Z,1.30
2023-09-08T16:34:03.090Z,1.40
2023-09-08T16:36:33.247Z,1.20
2023-09-08T16:39:01.479Z,1.40
2023-09-08T16:41:31.940Z,0.90
2023-09-08T16:44:00.022Z,1.20
2023-09-08T16:46:30.033Z,2.30
2023-09-08T16:48:58.248Z,1.50
2023-09-08T16:51:26.573Z,0.90
2023-09-08T16:53:54.783Z,1.00
2023-09-08T16:56:22.966Z,1.00
2023-09-08T16:58:51.620Z,1.00
2023-09-08T17:01:22.504Z,1.50
2023-09-08T17:03:51.118Z,0.90
2023-09-08T17:06:19.703Z,1.10
2023-09-08T17:08:47.957Z,1.30
2023-09-08T17:11:21.067Z,0.80
2023-09-08T17:13:49.241Z,1.10
2023-09-08T17:16:17.442Z,1.00
2023-09-08T17:18:45.706Z,1.00
2023-09-08T17:21:15.890Z,0.70
2023-09-08T17:23:44.050Z,0.90
2023-09-08T17:26:14.239Z,0.90
2023-09-08T17:28:42.569Z,1.20
2023-09-08T17:31:12.937Z,0.90
2023-09-08T17:33:41.486Z,1.40
2023-09-08T17:36:11.595Z,1.00
2023-09-08T17:38:39.825Z,0.90
2023-09-08T17:41:09.993Z,1.10
2023-09-08T17:43:38.446Z,0.90
2023-09-08T17:46:08.907Z,1.40
2023-09-08T17:48:37.082Z,1.00
2023-09-08T17:51:07.184Z,1.40
2023-09-08T17:53:37.265Z,2.20
2023-09-08T17:56:05.640Z,1.10
2023-09-08T17:58:33.720Z,1.00
2023-09-08T18:01:03.858Z,1.00
2023-09-08T18:03:32.363Z,0.80
2023-09-08T18:06:17.524Z,0.90
2023-09-08T18:08:45.753Z,1.10
2023-09-08T18:11:38.409Z,1.00
2023-09-08T18:14:06.795Z,1.00
2023-09-08T18:16:36.897Z,0.90
2023-09-08T18:19:05.505Z,0.70
2023-09-08T18:21:35.667Z,1.10
2023-09-08T18:24:04.455Z,1.10
2023-09-08T18:26:34.606Z,0.80
2023-09-08T18:29:02.832Z,0.90
2023-09-08T18:31:33.791Z,1.00
2023-09-08T18:34:02.059Z,0.80
2023-09-08T18:36:32.145Z,1.10
2023-09-08T18:39:00.298Z,1.50
2023-09-08T18:41:48.990Z,1.20
2023-09-08T18:44:17.193Z,1.00
2023-09-08T18:46:47.333Z,1.30
2023-09-08T18:49:15.642Z,1.70
2023-09-08T18:51:45.829Z,1.20
2023-09-08T18:54:13.896Z,1.80
2023-09-08T18:56:42.284Z,1.30
2023-09-08T18:59:10.435Z,1.30
2023-09-08T19:01:40.585Z,1.80
2023-09-08T19:04:08.807Z,1.90
2023-09-08T19:06:38.892Z,2.20
2023-09-08T19:09:07.100Z,2.10
2023-09-08T19:11:43.290Z,1.80
2023-09-08T19:14:11.385Z,1.70
2023-09-08T19:16:41.570Z,1.60
2023-09-08T19:19:10.396Z,1.90
2023-09-08T19:21:40.489Z,1.60
2023-09-08T19:24:08.800Z,1.60
2023-09-08T19:26:39.215Z,2.00
2023-09-08T19:29:07.519Z,1.40
2023-09-08T19:31:38.210Z,1.40
2023-09-08T19:34:06.466Z,2.00
2023-09-08T19:36:36.706Z,1.60
2023-09-08T19:39:04.781Z,1.90
2023-09-08T19:41:34.892Z,1.50
2023-09-08T19:44:05.009Z,1.30
2023-09-08T19:46:37.620Z,0.90
2023-09-08T19:49:06.393Z,1.70
2023-09-08T19:51:36.572Z,1.60
2023-09-08T19:54:04.819Z,1.50
2023-09-08T19:56:33.003Z,1.70
2023-09-08T19:59:02.828Z,1.20
2023-09-08T20:01:39.801Z,1.20
2023-09-08T20:04:09.301Z,1.70
2023-09-08T20:06:39.677Z,1.40
2023-09-08T20:09:13.232Z,1.10
2023-09-08T20:12:05.537Z,1.40
2023-09-08T20:14:33.680Z,1.20
2023-09-08T20:17:17.883Z,1.40
2023-09-08T20:19:46.202Z,1.60
2023-09-08T20:22:16.343Z,1.20
2023-09-08T20:24:45.142Z,1.30
2023-09-08T20:27:29.446Z,1.60
2023-09-08T20:29:57.653Z,1.50
2023-09-08T20:32:42.080Z,1.20
2023-09-08T20:35:10.278Z,1.50
2023-09-08T20:37:40.271Z,1.50
2023-09-08T20:40:08.769Z,1.10
2023-09-08T20:42:52.916Z,1.60
2023-09-08T20:47:54.852Z,1.40
2023-09-08T20:50:25.940Z,1.60
2023-09-08T20:52:56.083Z,1.30
2023-09-08T20:55:24.212Z,1.50
2023-09-08T20:58:08.731Z,1.30
2023-09-08T21:00:36.886Z,1.40
2023-09-08T21:03:15.010Z,1.00
2023-09-08T21:05:44.670Z,1.40
2023-09-08T21:08:14.661Z,1.50
2023-09-08T21:10:43.641Z,1.30
2023-09-08T21:13:14.344Z,1.90
2023-09-08T21:15:42.976Z,2.10
2023-09-08T21:18:13.744Z,1.80
2023-09-08T21:20:42.024Z,2.40
2023-09-08T21:23:12.505Z,2.00
2023-09-08T21:25:40.839Z,2.20
2023-09-08T21:28:10.978Z,1.90
2023-09-08T21:30:39.118Z,2.50
2023-09-08T21:33:23.436Z,1.80
2023-09-08T21:35:51.609Z,1.70
2023-09-08T21:38:21.657Z,1.50
2023-09-08T21:40:49.873Z,2.40
2023-09-08T21:43:19.976Z,1.70
2023-09-08T21:45:52.500Z,1.50
2023-09-08T21:48:22.622Z,1.80
2023-09-08T21:50:50.785Z,1.70
2023-09-08T21:53:26.854Z,1.50
2023-09-08T21:55:54.994Z,1.30
2023-09-08T21:58:39.233Z,1.20
2023-09-08T22:01:07.618Z,1.40
2023-09-08T22:03:35.964Z,1.80
2023-09-08T22:06:05.144Z,1.20
2023-09-08T22:08:36.134Z,1.60
2023-09-08T22:11:08.107Z,1.10
2023-09-08T22:13:38.286Z,1.80
2023-09-08T22:16:06.713Z,1.40
2023-09-08T22:18:51.561Z,1.40
2023-09-08T22:21:19.778Z,1.50
2023-09-08T22:23:52.295Z,1.50
2023-09-08T22:26:20.692Z,1.30
2023-09-08T22:29:05.194Z,1.40
2023-09-08T22:31:50.050Z,1.00
2023-09-08T22:34:18.301Z,1.70
2023-09-08T22:37:03.171Z,1.50
2023-09-08T22:39:31.251Z,1.80
2023-09-08T22:42:15.656Z,1.40
2023-09-08T22:44:43.818Z,1.60
2023-09-08T22:47:28.177Z,1.40
2023-09-08T22:49:58.316Z,1.00
2023-09-08T22:52:34.997Z,1.30
2023-09-08T22:55:23.373Z,1.10
2023-09-08T22:58:10.344Z,1.40
2023-09-08T23:00:38.526Z,1.20
2023-09-08T23:03:22.875Z,1.70
2023-09-08T23:05:51.105Z,1.20
2023-09-08T23:08:19.403Z,1.30
2023-09-08T23:10:47.580Z,1.20
2023-09-08T23:13:17.889Z,1.20
2023-09-08T23:15:46.092Z,1.20
2023-09-08T23:18:30.635Z,1.30
2023-09-08T23:20:58.871Z,1.20
2023-09-08T23:23:47.015Z,1.70
2023-09-08T23:26:15.179Z,1.50
2023-09-08T23:28:59.648Z,1.50
2023-09-08T23:34:07.240Z,1.00
2023-09-08T23:36:36.622Z,1.30
2023-09-08T23:39:07.522Z,1.80
2023-09-08T23:41:35.655Z,2.30
2023-09-08T23:44:08.902Z,1.50
2023-09-08T23:46:37.137Z,1.30
2023-09-08T23:49:07.324Z,1.50
2023-09-08T23:51:36.110Z,1.30
2023-09-08T23:54:06.559Z,1.70
2023-09-08T23:56:35.842Z,1.20
2023-09-08T23:59:20.209Z,1.30
